createdAt,value
2022-07-28T03:46:59.242Z,17.30
2022-07-28T03:49:26.037Z,17.20
2022-07-28T03:51:54.260Z,17.20
2022-07-28T03:54:21.155Z,17.20
2022-07-28T03:56:47.957Z,17.20
2022-07-28T03:59:14.796Z,17.20
2022-07-28T04:01:41.648Z,17.10
2022-07-28T04:04:08.443Z,17.10
2022-07-28T04:06:35.196Z,17.00
2022-07-28T04:09:02.217Z,16.90
2022-07-28T04:11:28.976Z,17.00
2022-07-28T04:13:56.462Z,17.00
2022-07-28T04:16:24.195Z,17.00
2022-07-28T04:18:51.068Z,16.90
2022-07-28T04:21:17.809Z,16.90
2022-07-28T04:23:44.600Z,17.00
2022-07-28T04:26:11.417Z,17.00
2022-07-28T04:28:38.303Z,17.00
2022-07-28T04:31:05.309Z,17.00
2022-07-28T04:33:32.388Z,17.00
2022-07-28T04:36:01.605Z,17.00
2022-07-28T04:38:29.075Z,17.00
2022-07-28T04:40:55.961Z,17.10
2022-07-28T04:43:23.102Z,17.10
2022-07-28T04:45:53.248Z,17.10
2022-07-28T04:48:20.469Z,17.10
2022-07-28T04:50:47.348Z,17.20
2022-07-28T04:53:14.157Z,17.30
2022-07-28T04:55:41.037Z,17.30
2022-07-28T04:58:09.351Z,17.30
2022-07-28T05:00:43.485Z,17.40
2022-07-28T05:03:11.668Z,17.40
2022-07-28T05:05:38.438Z,17.50
2022-07-28T05:08:05.611Z,17.60
2022-07-28T05:10:32.437Z,17.60
2022-07-28T05:13:04.036Z,17.70
2022-07-28T05:15:30.828Z,17.80
2022-07-28T05:17:57.608Z,17.80
2022-07-28T05:20:24.462Z,17.80
2022-07-28T05:22:53.549Z,17.90
2022-07-28T05:25:23.608Z,18.00
2022-07-28T05:27:51.310Z,18.10
2022-07-28T05:30:18.823Z,18.20
2022-07-28T05:32:46.468Z,18.30
2022-07-28T05:35:13.610Z,18.30
2022-07-28T05:37:40.558Z,18.30
2022-07-28T05:40:15.928Z,18.40
2022-07-28T05:42:43.439Z,18.50
2022-07-28T05:45:16.615Z,18.50
2022-07-28T05:47:46.441Z,18.50
2022-07-28T05:50:17.790Z,18.50
2022-07-28T05:52:45.131Z,18.60
2022-07-28T05:55:12.257Z,18.70
2022-07-28T05:57:40.028Z,18.80
2022-07-28T06:00:13.061Z,18.90
2022-07-28T06:02:40.905Z,18.90
2022-07-28T06:05:08.129Z,19.00
2022-07-28T06:07:42.400Z,19.10
2022-07-28T06:10:11.957Z,19.20
2022-07-28T06:12:44.016Z,19.30
2022-07-28T06:15:16.313Z,19.40
2022-07-28T06:17:43.314Z,19.50
2022-07-28T06:20:11.342Z,19.60
2022-07-28T06:22:52.574Z,19.50
2022-07-28T06:25:22.798Z,19.70
2022-07-28T06:27:54.454Z,19.70
2022-07-28T06:30:21.441Z,19.70
2022-07-28T06:32:48.809Z,19.90
2022-07-28T06:35:16.912Z,20.00
2022-07-28T06:37:48.098Z,20.00
2022-07-28T06:40:16.051Z,20.00
2022-07-28T06:42:45.150Z,20.10
2022-07-28T06:45:20.671Z,20.10
2022-07-28T06:47:49.835Z,20.10
2022-07-28T06:50:25.765Z,20.20
2022-07-28T06:52:57.183Z,20.20
2022-07-28T06:55:28.439Z,20.30
2022-07-28T06:58:02.738Z,20.30
2022-07-28T07:00:29.776Z,20.30
2022-07-28T07:02:56.714Z,20.30
2022-07-28T07:05:23.736Z,20.40
2022-07-28T07:07:50.598Z,20.40
2022-07-28T07:10:17.547Z,20.50
2022-07-28T07:12:44.330Z,20.60
2022-07-28T07:15:12.098Z,20.70
2022-07-28T07:17:39.145Z,20.70
2022-07-28T07:20:07.505Z,20.80
2022-07-28T07:22:35.462Z,20.90
2022-07-28T07:25:13.780Z,20.90
2022-07-28T07:27:40.963Z,20.90
2022-07-28T07:30:09.032Z,20.90
2022-07-28T07:32:37.013Z,21.10
2022-07-28T07:35:04.609Z,21.10
2022-07-28T07:37:34.310Z,21.10
2022-07-28T07:40:02.620Z,21.20
2022-07-28T07:42:29.522Z,21.30
2022-07-28T07:44:56.534Z,21.40
2022-07-28T07:47:23.445Z,21.40
2022-07-28T07:49:50.404Z,21.50
2022-07-28T07:52:17.278Z,21.60
2022-07-28T07:54:44.180Z,21.70
2022-07-28T07:57:11.298Z,21.70
2022-07-28T07:59:38.258Z,21.80
2022-07-28T08:02:05.563Z,22.00
2022-07-28T08:04:37.399Z,22.10
2022-07-28T08:07:06.055Z,22.10
2022-07-28T08:09:33.685Z,22.30
2022-07-28T08:12:00.609Z,22.30
2022-07-28T08:14:27.621Z,22.50
2022-07-28T08:16:56.647Z,22.60
2022-07-28T08:19:23.772Z,22.80
2022-07-28T08:21:51.201Z,22.70
2022-07-28T08:24:32.780Z,22.90
2022-07-28T08:27:04.575Z,23.10
2022-07-28T08:29:31.980Z,23.20
2022-07-28T08:31:59.143Z,23.40
2022-07-28T08:34:33.207Z,23.60
2022-07-28T08:37:05.514Z,23.70
2022-07-28T08:39:33.471Z,23.80
2022-07-28T08:42:06.045Z,23.80
2022-07-28T08:44:50.674Z,23.90
2022-07-28T08:47:19.606Z,24.20
2022-07-28T08:49:48.789Z,24.40
2022-07-28T08:52:18.502Z,24.50
2022-07-28T08:54:46.750Z,24.60
2022-07-28T08:57:35.585Z,24.70
2022-07-28T09:00:03.755Z,24.90
2022-07-28T09:02:33.079Z,25.00
2022-07-28T09:05:00.287Z,25.20
2022-07-28T09:07:27.664Z,25.10
2022-07-28T09:09:57.338Z,25.30
2022-07-28T09:12:29.872Z,25.50
2022-07-28T09:14:56.803Z,25.60
2022-07-28T09:17:23.771Z,25.30
2022-07-28T09:19:50.689Z,25.30
2022-07-28T09:22:17.729Z,25.50
2022-07-28T09:24:45.868Z,26.00
2022-07-28T09:27:15.449Z,26.50
2022-07-28T09:29:48.421Z,26.90
2022-07-28T09:32:19.156Z,27.10
2022-07-28T09:34:47.815Z,27.20
2022-07-28T09:37:24.750Z,27.30
2022-07-28T09:39:58.002Z,27.60
2022-07-28T09:42:25.913Z,27.70
2022-07-28T09:45:25.575Z,27.90
2022-07-28T09:48:25.382Z,28.30
2022-07-28T09:50:52.562Z,28.90
2022-07-28T09:53:28.264Z,28.90
2022-07-28T09:55:56.677Z,29.20
2022-07-28T09:58:23.653Z,28.80
2022-07-28T10:01:08.331Z,28.90
2022-07-28T10:03:48.644Z,29.20
2022-07-28T10:06:17.029Z,29.70
2022-07-28T10:08:45.647Z,30.30
2022-07-28T10:11:14.922Z,30.90
2022-07-28T10:13:58.489Z,31.30
2022-07-28T10:16:27.400Z,31.70
2022-07-28T10:18:55.524Z,31.60
2022-07-28T10:21:24.086Z,31.70
2022-07-28T10:23:52.591Z,32.40
2022-07-28T10:26:37.612Z,32.20
2022-07-28T10:29:07.862Z,32.40
2022-07-28T10:31:43.654Z,32.80
2022-07-28T10:34:20.567Z,33.20
2022-07-28T10:36:55.906Z,33.90
2022-07-28T10:39:25.996Z,34.60
2022-07-28T10:41:54.159Z,35.10
2022-07-28T10:44:21.653Z,35.00
2022-07-28T10:46:49.871Z,35.10
2022-07-28T10:49:17.490Z,35.20
2022-07-28T10:52:02.421Z,35.40
2022-07-28T10:55:03.451Z,35.40
2022-07-28T10:57:33.028Z,35.40
2022-07-28T11:00:24.524Z,35.10
2022-07-28T11:02:59.109Z,34.70
2022-07-28T11:05:41.339Z,35.10
2022-07-28T11:08:18.353Z,35.00
2022-07-28T11:10:51.192Z,35.40
2022-07-28T11:13:33.018Z,34.90
2022-07-28T11:16:18.020Z,34.50
2022-07-28T11:19:07.909Z,34.20
2022-07-28T11:22:15.076Z,34.70
2022-07-28T11:25:20.730Z,35.00
2022-07-28T11:27:51.882Z,35.50
2022-07-28T11:30:19.556Z,35.50
2022-07-28T11:32:53.546Z,35.20
2022-07-28T11:35:31.364Z,34.90
2022-07-28T11:38:01.514Z,35.20
2022-07-28T11:40:45.953Z,35.90
2022-07-28T11:43:35.818Z,35.70
2022-07-28T11:46:07.795Z,35.80
2022-07-28T11:48:42.044Z,36.00
2022-07-28T11:51:13.338Z,36.30
2022-07-28T11:53:41.576Z,37.00
2022-07-28T11:56:13.824Z,36.20
2022-07-28T11:58:42.115Z,35.50
2022-07-28T12:01:20.114Z,35.50
2022-07-28T12:03:55.285Z,34.90
2022-07-28T12:06:27.177Z,34.50
2022-07-28T12:09:01.116Z,34.40
2022-07-28T12:11:33.423Z,34.00
2022-07-28T12:14:08.610Z,33.60
2022-07-28T12:16:38.702Z,33.10
2022-07-28T12:19:08.303Z,33.00
2022-07-28T12:21:58.649Z,33.20
2022-07-28T12:24:31.470Z,33.30
2022-07-28T12:27:00.584Z,32.90
2022-07-28T12:29:35.826Z,32.40
2022-07-28T12:32:10.138Z,31.90
2022-07-28T12:34:39.949Z,31.80
2022-07-28T12:37:12.517Z,32.10
2022-07-28T12:39:42.723Z,32.00
2022-07-28T12:42:12.366Z,32.10
2022-07-28T12:44:48.122Z,32.10
2022-07-28T12:47:17.713Z,32.30
2022-07-28T12:49:45.311Z,32.70
2022-07-28T12:52:23.282Z,33.40
2022-07-28T12:54:54.805Z,34.00
2022-07-28T12:57:48.715Z,34.50
2022-07-28T13:00:21.235Z,34.80
2022-07-28T13:02:50.552Z,34.90
2022-07-28T13:05:32.938Z,34.70
2022-07-28T13:08:05.287Z,34.20
2022-07-28T13:10:33.145Z,33.90
2022-07-28T13:13:05.948Z,33.50
2022-07-28T13:15:33.527Z,33.40
2022-07-28T13:18:00.678Z,33.70
2022-07-28T13:20:27.811Z,34.20
2022-07-28T13:22:56.086Z,34.60
2022-07-28T13:25:23.204Z,34.90
2022-07-28T13:27:54.903Z,35.20
2022-07-28T13:30:23.495Z,35.30
2022-07-28T13:32:50.697Z,35.40
2022-07-28T13:35:19.021Z,35.70
2022-07-28T13:37:47.980Z,35.70
2022-07-28T13:40:14.925Z,35.10
2022-07-28T13:42:52.860Z,34.30
2022-07-28T13:45:22.186Z,34.00
2022-07-28T13:47:52.361Z,33.80
2022-07-28T13:50:20.855Z,33.60
2022-07-28T13:52:48.251Z,33.60
2022-07-28T13:55:17.594Z,33.80
2022-07-28T13:57:49.151Z,34.30
2022-07-28T14:00:18.577Z,34.20
2022-07-28T14:02:47.151Z,34.10
2022-07-28T14:05:14.598Z,34.40
2022-07-28T14:07:42.718Z,34.80
2022-07-28T14:10:15.685Z,35.20
2022-07-28T14:12:42.560Z,35.40
2022-07-28T14:15:13.514Z,35.40
2022-07-28T14:17:43.291Z,35.70
2022-07-28T14:20:13.000Z,36.00
2022-07-28T14:22:39.927Z,36.00
2022-07-28T14:25:07.233Z,35.30
2022-07-28T14:27:34.309Z,35.10
2022-07-28T14:30:03.280Z,35.00
2022-07-28T14:32:31.022Z,34.60
2022-07-28T14:34:57.748Z,34.30
2022-07-28T14:37:25.074Z,34.50
2022-07-28T14:39:51.856Z,34.90
2022-07-28T14:42:18.733Z,35.20
2022-07-28T14:44:45.448Z,35.40
2022-07-28T14:47:12.395Z,35.40
2022-07-28T14:49:58.234Z,35.40
2022-07-28T14:52:26.697Z,35.70
2022-07-28T14:54:54.429Z,35.70
2022-07-28T14:57:21.375Z,35.40
2022-07-28T15:00:09.962Z,35.40
2022-07-28T15:02:36.787Z,35.50
2022-07-28T15:05:04.064Z,35.70
2022-07-28T15:07:30.879Z,35.60
2022-07-28T15:09:57.768Z,35.60
2022-07-28T15:12:24.856Z,35.70
2022-07-28T15:14:51.725Z,35.80
2022-07-28T15:17:19.627Z,35.80
2022-07-28T15:19:47.073Z,35.90
2022-07-28T15:22:14.141Z,35.30
2022-07-28T15:24:42.151Z,35.20
2022-07-28T15:27:12.626Z,35.30
2022-07-28T15:29:39.490Z,35.40
2022-07-28T15:32:12.333Z,35.30
2022-07-28T15:34:39.900Z,35.20
2022-07-28T15:37:07.072Z,35.10
2022-07-28T15:39:34.147Z,34.90
2022-07-28T15:42:01.400Z,34.70
2022-07-28T15:44:29.847Z,34.50
2022-07-28T15:46:56.688Z,34.40
2022-07-28T15:49:23.738Z,34.50
2022-07-28T15:51:50.539Z,34.60
2022-07-28T15:54:18.642Z,34.60
2022-07-28T15:56:45.836Z,34.50
2022-07-28T15:59:12.706Z,34.50
2022-07-28T16:01:45.024Z,34.30
2022-07-28T16:04:12.749Z,34.20
2022-07-28T16:06:58.758Z,34.10
2022-07-28T16:09:25.554Z,34.20
2022-07-28T16:12:14.413Z,34.30
2022-07-28T16:14:42.289Z,34.20
2022-07-28T16:17:09.806Z,34.20
2022-07-28T16:19:49.016Z,34.10
2022-07-28T16:22:18.317Z,34.10
2022-07-28T16:24:45.697Z,34.10
2022-07-28T16:27:12.467Z,34.10
2022-07-28T16:29:39.290Z,34.00
2022-07-28T16:32:06.117Z,34.00
2022-07-28T16:34:32.858Z,34.20
2022-07-28T16:36:59.556Z,33.70
2022-07-28T16:39:26.261Z,33.50
2022-07-28T16:41:53.225Z,33.30
2022-07-28T16:44:20.504Z,33.20
2022-07-28T16:46:47.672Z,33.10
2022-07-28T16:49:15.924Z,32.90
2022-07-28T16:51:43.305Z,32.80
2022-07-28T16:54:10.048Z,32.60
2022-07-28T16:56:36.801Z,32.20
2022-07-28T16:59:03.723Z,31.80
2022-07-28T17:01:30.699Z,31.60
2022-07-28T17:03:57.501Z,31.40
2022-07-28T17:06:24.771Z,31.30
2022-07-28T17:08:51.553Z,31.20
2022-07-28T17:11:18.318Z,31.00
2022-07-28T17:13:45.634Z,30.80
2022-07-28T17:16:13.160Z,30.70
2022-07-28T17:18:40.256Z,30.70
2022-07-28T17:21:07.019Z,30.60
2022-07-28T17:23:36.405Z,30.40
2022-07-28T17:28:54.022Z,30.20
2022-07-28T17:31:21.072Z,30.10
2022-07-28T17:33:47.836Z,30.00
2022-07-28T17:36:15.818Z,30.00
2022-07-28T17:38:45.532Z,29.70
2022-07-28T17:41:12.554Z,29.70
2022-07-28T17:43:45.167Z,29.50
2022-07-28T17:46:12.714Z,29.40
2022-07-28T17:48:40.009Z,29.30
2022-07-28T17:51:07.003Z,29.20
2022-07-28T17:53:39.078Z,29.10
2022-07-28T17:56:08.536Z,29.00
2022-07-28T17:58:35.660Z,28.90
2022-07-28T18:01:09.531Z,28.70
2022-07-28T18:04:00.035Z,28.60
2022-07-28T18:06:35.785Z,28.40
2022-07-28T18:09:06.740Z,28.40
2022-07-28T18:11:55.502Z,28.30
2022-07-28T18:14:29.321Z,28.30
2022-07-28T18:16:57.322Z,28.30
2022-07-28T18:19:24.534Z,28.30
2022-07-28T18:21:51.372Z,28.10
2022-07-28T18:24:18.574Z,28.00
2022-07-28T18:26:45.729Z,27.90
2022-07-28T18:29:12.482Z,27.80
2022-07-28T18:31:45.882Z,27.70
2022-07-28T18:34:14.103Z,27.70
2022-07-28T18:36:41.185Z,27.30
2022-07-28T18:39:08.519Z,27.10
2022-07-28T18:41:47.013Z,26.70
2022-07-28T18:44:15.642Z,26.30
2022-07-28T18:46:42.740Z,25.70
2022-07-28T18:49:09.565Z,25.30
2022-07-28T18:51:36.772Z,25.00
2022-07-28T18:54:03.776Z,24.70
2022-07-28T18:56:31.681Z,24.60
2022-07-28T18:58:58.413Z,24.50
2022-07-28T19:01:25.187Z,24.50
2022-07-28T19:03:51.933Z,24.40
2022-07-28T19:06:18.803Z,24.40
2022-07-28T19:08:45.514Z,24.30
2022-07-28T19:11:13.519Z,24.30
2022-07-28T19:13:41.919Z,24.10
2022-07-28T19:16:08.758Z,24.10
2022-07-28T19:18:35.573Z,24.00
2022-07-28T19:21:02.282Z,24.00
2022-07-28T19:23:30.286Z,24.00
2022-07-28T19:25:58.003Z,24.00
2022-07-28T19:28:24.745Z,24.10
2022-07-28T19:30:51.570Z,24.20
2022-07-28T19:33:19.497Z,24.10
2022-07-28T19:35:46.446Z,24.20
2022-07-28T19:38:13.379Z,24.30
2022-07-28T19:40:43.003Z,24.20
2022-07-28T19:43:12.790Z,24.30
2022-07-28T19:45:39.611Z,24.30
2022-07-28T19:48:07.404Z,24.40
2022-07-28T19:50:36.136Z,24.40
2022-07-28T19:53:03.137Z,24.40
2022-07-28T19:55:36.227Z,24.40
2022-07-28T19:58:03.486Z,24.40
2022-07-28T20:00:30.252Z,24.40
2022-07-28T20:02:57.227Z,24.20
2022-07-28T20:05:24.260Z,24.10
2022-07-28T20:07:51.029Z,24.10
2022-07-28T20:10:17.978Z,24.30
2022-07-28T20:12:45.393Z,24.30
2022-07-28T20:15:12.909Z,24.20
2022-07-28T20:17:40.277Z,24.20
2022-07-28T20:20:13.460Z,24.10
2022-07-28T20:22:41.369Z,24.00
2022-07-28T20:25:09.997Z,24.00
2022-07-28T20:27:40.128Z,24.00
2022-07-28T20:30:10.158Z,24.10
2022-07-28T20:32:37.616Z,24.10
2022-07-28T20:35:05.463Z,24.00
2022-07-28T20:37:35.879Z,24.00
2022-07-28T20:40:07.497Z,23.80
2022-07-28T20:42:34.883Z,23.60
2022-07-28T20:45:01.730Z,23.60
2022-07-28T20:47:31.514Z,23.50
2022-07-28T20:49:58.244Z,23.30
2022-07-28T20:52:25.082Z,23.30
2022-07-28T20:54:54.528Z,23.30
2022-07-28T20:57:22.639Z,23.10
2022-07-28T20:59:51.201Z,22.90
2022-07-28T21:02:21.912Z,22.80
2022-07-28T21:04:50.137Z,22.60
2022-07-28T21:07:18.137Z,22.50
2022-07-28T21:10:06.469Z,22.50
2022-07-28T21:12:33.859Z,22.60
2022-07-28T21:15:00.683Z,22.60
2022-07-28T21:17:27.429Z,22.60
2022-07-28T21:19:54.179Z,22.60
2022-07-28T21:22:22.672Z,22.60
2022-07-28T21:24:53.201Z,22.50
2022-07-28T21:27:22.295Z,22.40
2022-07-28T21:29:49.089Z,22.30
2022-07-28T21:32:15.834Z,22.10
2022-07-28T21:34:42.615Z,22.00
2022-07-28T21:37:11.494Z,22.00
2022-07-28T21:39:39.094Z,22.00
2022-07-28T21:42:08.325Z,22.00
2022-07-28T21:44:38.756Z,22.10
2022-07-28T21:47:05.605Z,22.00
2022-07-28T21:49:32.608Z,22.10
2022-07-28T21:51:59.596Z,22.10
2022-07-28T21:54:26.642Z,22.10
2022-07-28T21:56:53.370Z,22.10
2022-07-28T21:59:20.223Z,22.10
2022-07-28T22:01:47.211Z,22.10
2022-07-28T22:04:14.414Z,22.10
2022-07-28T22:06:41.416Z,22.10
2022-07-28T22:09:13.589Z,22.10
2022-07-28T22:11:40.322Z,22.10
2022-07-28T22:14:07.011Z,22.10
2022-07-28T22:16:33.820Z,22.10
2022-07-28T22:19:00.594Z,22.00
2022-07-28T22:21:27.505Z,22.00
2022-07-28T22:23:54.214Z,21.90
2022-07-28T22:26:20.976Z,21.90
2022-07-28T22:28:47.698Z,21.90
2022-07-28T22:31:14.937Z,21.90
2022-07-28T22:33:41.717Z,21.80
2022-07-28T22:36:09.047Z,21.80
2022-07-28T22:38:36.233Z,21.80
2022-07-28T22:41:03.290Z,21.90
2022-07-28T22:43:32.990Z,21.80
2022-07-28T22:45:59.942Z,21.80
2022-07-28T22:48:26.946Z,21.90
2022-07-28T22:50:53.666Z,21.80
2022-07-28T22:53:20.445Z,21.70
2022-07-28T22:55:47.243Z,21.70
2022-07-28T22:58:13.934Z,21.70
